Time;durP1;ratioP1;P1;durP2;ratioP2;P2;SDS_P1;SDS_P2;PMS_P1;PMS_P2;Temp;Humidity;BMP_temperature;BMP_pressure;BME280_temperature;BME280_humidity;BME280_pressure;Samples;Min_cycle;Max_cycle;Signal;HPM_P1;HPM_P2
2024/01/26 00:00:21;;;;;;;4.82;2.78;;;;;;;;;;8206034;28;20419;-58
2024/01/26 00:04:21;;;;;;;3.85;3.33;;;;;;;;;;8203881;28;20108;-57
2024/01/26 00:08:22;;;;;;;4.70;3.60;;;;;;;;;;8205755;28;20463;-58
2024/01/26 00:12:22;;;;;;;5.75;4.35;;;;;;;;;;8206699;28;20854;-58
2024/01/26 00:16:22;;;;;;;8.13;4.78;;;;;;;;;;8202799;28;20630;-59
2024/01/26 00:20:23;;;;;;;6.20;4.78;;;;;;;;;;8204051;28;20501;-59
2024/01/26 00:24:23;;;;;;;6.35;4.85;;;;;;;;;;8211807;28;20105;-60
2024/01/26 00:28:23;;;;;;;5.30;4.80;;;;;;;;;;8209176;28;20820;-59
2024/01/26 00:32:23;;;;;;;4.88;4.22;;;;;;;;;;8210830;28;20231;-57
2024/01/26 00:36:25;;;;;;;5.75;5.03;;;;;;;;;;8204499;28;20546;-59
2024/01/26 00:40:25;;;;;;;5.28;4.25;;;;;;;;;;8208168;28;20030;-60
2024/01/26 00:44:25;;;;;;;6.53;4.10;;;;;;;;;;8210878;28;20637;-57
2024/01/26 00:48:26;;;;;;;6.07;4.00;;;;;;;;;;8203901;28;20535;-59
2024/01/26 00:52:26;;;;;;;7.47;4.32;;;;;;;;;;8211544;28;20556;-59
2024/01/26 00:56:26;;;;;;;4.75;4.30;;;;;;;;;;8203623;28;20137;-60
2024/01/26 01:00:27;;;;;;;5.45;4.10;;;;;;;;;;8209449;28;20605;-60
2024/01/26 01:04:27;;;;;;;5.80;4.97;;;;;;;;;;8210532;28;20061;-57
2024/01/26 01:08:27;;;;;;;10.50;4.30;;;;;;;;;;8234154;28;20686;-58
2024/01/26 01:12:28;;;;;;;6.65;4.45;;;;;;;;;;8238032;28;20026;-57
2024/01/26 01:16:29;;;;;;;6.28;4.90;;;;;;;;;;8235200;28;20015;-58
2024/01/26 01:20:29;;;;;;;7.35;4.80;;;;;;;;;;8237030;28;20333;-58
2024/01/26 01:24:29;;;;;;;6.78;4.53;;;;;;;;;;8232482;28;20026;-58
2024/01/26 01:28:29;;;;;;;5.70;4.60;;;;;;;;;;8224833;28;20056;-63
2024/01/26 01:32:30;;;;;;;5.95;4.72;;;;;;;;;;8220923;28;20236;-58
2024/01/26 01:36:30;;;;;;;5.82;4.75;;;;;;;;;;8212303;28;20029;-58
2024/01/26 01:40:30;;;;;;;5.50;4.50;;;;;;;;;;8201554;28;20467;-59
2024/01/26 01:44:30;;;;;;;5.93;4.03;;;;;;;;;;8206022;28;20636;-58
2024/01/26 01:48:30;;;;;;;5.70;4.30;;;;;;;;;;8209405;28;20041;-58
2024/01/26 01:52:32;;;;;;;4.83;4.30;;;;;;;;;;8207741;28;20036;-59
2024/01/26 01:56:33;;;;;;;5.80;4.10;;;;;;;;;;8214971;28;20040;-59
2024/01/26 02:00:33;;;;;;;5.90;4.30;;;;;;;;;;8199059;28;20114;-59
2024/01/26 02:04:34;;;;;;;5.50;3.72;;;;;;;;;;8212815;28;20175;-59
2024/01/26 02:08:34;;;;;;;5.25;3.45;;;;;;;;;;8208449;28;20096;-58
2024/01/26 02:12:34;;;;;;;4.85;3.78;;;;;;;;;;8217200;28;20033;-59
2024/01/26 02:16:34;;;;;;;4.70;3.30;;;;;;;;;;8214481;28;20100;-59
2024/01/26 02:20:34;;;;;;;3.72;2.97;;;;;;;;;;8228551;28;20021;-59
2024/01/26 02:24:35;;;;;;;3.85;2.72;;;;;;;;;;8224293;28;20030;-59
2024/01/26 02:28:35;;;;;;;3.67;2.90;;;;;;;;;;8223940;28;20054;-59
2024/01/26 02:32:36;;;;;;;2.75;2.55;;;;;;;;;;8222527;28;20557;-58
2024/01/26 02:36:36;;;;;;;3.08;2.75;;;;;;;;;;8222884;28;20025;-59
2024/01/26 02:40:36;;;;;;;3.45;2.25;;;;;;;;;;8223555;28;20144;-59
2024/01/26 02:44:36;;;;;;;2.97;1.73;;;;;;;;;;8222623;28;20030;-59
2024/01/26 02:48:37;;;;;;;1.80;1.70;;;;;;;;;;8225567;28;20053;-58
2024/01/26 02:52:38;;;;;;;1.55;1.45;;;;;;;;;;8225076;28;20494;-60
2024/01/26 02:56:38;;;;;;;2.22;1.65;;;;;;;;;;8230937;28;20141;-58
2024/01/26 03:00:39;;;;;;;1.52;1.42;;;;;;;;;;8224862;28;20037;-59
2024/01/26 03:04:40;;;;;;;1.80;1.70;;;;;;;;;;8226497;28;20026;-59
2024/01/26 03:08:40;;;;;;;1.70;1.60;;;;;;;;;;8213777;28;20041;-58
2024/01/26 03:12:40;;;;;;;1.90;1.70;;;;;;;;;;8210805;28;20022;-58
2024/01/26 03:16:41;;;;;;;1.88;1.77;;;;;;;;;;8216009;28;20034;-60
2024/01/26 03:20:41;;;;;;;1.33;1.23;;;;;;;;;;8210820;28;20116;-58
2024/01/26 03:24:43;;;;;;;0.90;0.90;;;;;;;;;;8209165;28;20061;-60
2024/01/26 03:28:43;;;;;;;0.98;0.90;;;;;;;;;;8214994;28;20678;-58
2024/01/26 03:32:43;;;;;;;0.70;0.70;;;;;;;;;;8211567;28;20566;-58
2024/01/26 03:36:43;;;;;;;0.80;0.80;;;;;;;;;;8212727;28;20285;-57
2024/01/26 03:40:44;;;;;;;1.45;0.70;;;;;;;;;;8208226;28;20042;-58
2024/01/26 03:44:44;;;;;;;0.70;0.70;;;;;;;;;;8211538;28;20411;-58
2024/01/26 03:48:44;;;;;;;0.70;0.70;;;;;;;;;;8208791;28;20038;-59
2024/01/26 03:52:44;;;;;;;0.63;0.60;;;;;;;;;;8210904;28;20190;-59
2024/01/26 03:56:45;;;;;;;0.50;0.50;;;;;;;;;;8212118;28;20592;-60
2024/01/26 04:00:45;;;;;;;0.57;0.57;;;;;;;;;;8213666;28;20326;-59
2024/01/26 04:04:46;;;;;;;0.50;0.50;;;;;;;;;;8216677;28;20060;-59
2024/01/26 04:08:46;;;;;;;0.60;0.60;;;;;;;;;;8211132;28;20034;-59
2024/01/26 04:12:46;;;;;;;0.80;0.80;;;;;;;;;;8212174;28;20037;-59
2024/01/26 04:16:46;;;;;;;0.80;0.80;;;;;;;;;;8212337;28;20638;-59
2024/01/26 04:20:48;;;;;;;1.85;0.98;;;;;;;;;;8213749;28;20310;-59
2024/01/26 04:24:48;;;;;;;1.33;0.98;;;;;;;;;;8211649;28;22020;-59
2024/01/26 04:28:48;;;;;;;1.10;1.08;;;;;;;;;;8208110;28;21862;-59
2024/01/26 04:32:49;;;;;;;1.55;1.38;;;;;;;;;;8212842;28;20669;-59
2024/01/26 04:36:49;;;;;;;1.38;1.27;;;;;;;;;;8216331;28;20091;-59
2024/01/26 04:40:49;;;;;;;2.08;1.20;;;;;;;;;;8215905;28;22892;-59
2024/01/26 04:44:49;;;;;;;1.30;1.20;;;;;;;;;;8214318;28;20733;-59
2024/01/26 04:48:50;;;;;;;1.90;1.60;;;;;;;;;;8205305;28;20699;-61
2024/01/26 04:52:52;;;;;;;2.72;1.45;;;;;;;;;;8211577;28;20556;-60
2024/01/26 04:56:52;;;;;;;2.08;1.48;;;;;;;;;;8217884;28;20057;-59
2024/01/26 05:00:52;;;;;;;2.53;1.20;;;;;;;;;;8223786;28;21023;-60
2024/01/26 05:04:54;;;;;;;1.60;1.50;;;;;;;;;;8232104;28;20022;-60
2024/01/26 05:09:01;;;;;;;1.60;1.50;;;;;;;;;;8230676;28;20026;-59
2024/01/26 05:13:01;;;;;;;1.52;1.42;;;;;;;;;;8238648;28;20389;-59
2024/01/26 05:17:02;;;;;;;1.60;1.50;;;;;;;;;;8229601;28;20038;-60
2024/01/26 05:21:02;;;;;;;1.73;1.63;;;;;;;;;;8232737;28;20026;-59
2024/01/26 05:25:03;;;;;;;1.52;1.40;;;;;;;;;;8234426;28;20499;-59
2024/01/26 05:29:03;;;;;;;1.50;1.40;;;;;;;;;;8233496;28;20296;-59
2024/01/26 05:33:04;;;;;;;1.42;1.33;;;;;;;;;;8231941;28;20053;-58
2024/01/26 05:37:04;;;;;;;2.23;1.80;;;;;;;;;;8232517;28;20029;-59
2024/01/26 05:41:04;;;;;;;1.40;1.30;;;;;;;;;;8233850;28;20312;-59
2024/01/26 05:45:05;;;;;;;1.77;1.67;;;;;;;;;;8235387;28;20058;-60
2024/01/26 05:49:05;;;;;;;1.60;1.50;;;;;;;;;;8224339;28;20025;-58
2024/01/26 05:53:07;;;;;;;2.00;1.88;;;;;;;;;;8208955;28;20581;-56
2024/01/26 05:57:07;;;;;;;2.60;2.17;;;;;;;;;;8202940;28;20391;-58
2024/01/26 06:01:07;;;;;;;3.50;2.00;;;;;;;;;;8202838;28;20545;-60
2024/01/26 06:05:08;;;;;;;3.25;1.92;;;;;;;;;;8211257;28;20281;-58
2024/01/26 06:09:08;;;;;;;1.70;1.60;;;;;;;;;;8208389;28;20046;-57
2024/01/26 06:13:08;;;;;;;1.65;1.55;;;;;;;;;;8208490;28;20867;-58
2024/01/26 06:17:08;;;;;;;3.37;1.90;;;;;;;;;;8207713;28;20510;-58
2024/01/26 06:21:09;;;;;;;2.30;1.80;;;;;;;;;;8210364;28;21143;-57
2024/01/26 06:25:09;;;;;;;2.20;1.80;;;;;;;;;;8210785;28;20040;-58
2024/01/26 06:29:09;;;;;;;1.73;1.50;;;;;;;;;;8209010;28;20513;-57
2024/01/26 06:33:09;;;;;;;1.75;1.65;;;;;;;;;;8206052;28;22092;-58
2024/01/26 06:37:09;;;;;;;1.67;1.58;;;;;;;;;;8206544;28;20034;-57
2024/01/26 06:41:10;;;;;;;1.77;1.63;;;;;;;;;;8225802;28;20956;-56
2024/01/26 06:45:11;;;;;;;1.50;1.40;;;;;;;;;;8227262;28;20030;-58
2024/01/26 06:49:11;;;;;;;3.55;1.40;;;;;;;;;;8234243;28;20041;-58
2024/01/26 06:53:11;;;;;;;1.55;1.45;;;;;;;;;;8236364;28;20108;-58
2024/01/26 06:57:11;;;;;;;1.98;1.80;;;;;;;;;;8234390;28;20044;-59
2024/01/26 07:01:11;;;;;;;2.40;1.90;;;;;;;;;;8221558;28;20120;-59
2024/01/26 07:05:12;;;;;;;1.92;1.83;;;;;;;;;;8220065;28;20519;-60
2024/01/26 07:09:12;;;;;;;1.75;1.65;;;;;;;;;;8216802;28;20030;-60
2024/01/26 07:13:12;;;;;;;2.38;2.17;;;;;;;;;;8213680;28;20080;-58
2024/01/26 07:17:13;;;;;;;2.50;2.30;;;;;;;;;;8215209;28;20058;-59
2024/01/26 07:21:18;;;;;;;2.10;2.00;;;;;;;;;;8215589;28;20025;-59
2024/01/26 07:25:21;;;;;;;3.45;3.10;;;;;;;;;;8212958;28;20135;-59
2024/01/26 07:29:21;;;;;;;4.60;3.40;;;;;;;;;;8211349;28;20026;-59
2024/01/26 07:33:21;;;;;;;3.58;2.97;;;;;;;;;;8215483;28;20097;-58
2024/01/26 07:37:21;;;;;;;3.92;3.58;;;;;;;;;;8220574;28;20137;-59
2024/01/26 07:41:22;;;;;;;4.57;3.70;;;;;;;;;;8207540;28;20464;-59
2024/01/26 07:45:22;;;;;;;3.33;2.90;;;;;;;;;;8212032;28;20912;-59
2024/01/26 07:49:22;;;;;;;4.47;3.10;;;;;;;;;;8208724;28;20030;-59
2024/01/26 07:53:22;;;;;;;3.20;2.90;;;;;;;;;;8217624;28;20422;-60
2024/01/26 07:57:24;;;;;;;3.75;3.30;;;;;;;;;;8212953;28;20574;-60
2024/01/26 08:01:24;;;;;;;5.38;3.58;;;;;;;;;;8222444;28;20031;-58
2024/01/26 08:05:25;;;;;;;3.88;3.30;;;;;;;;;;8222357;28;20163;-59
2024/01/26 08:09:25;;;;;;;4.30;3.07;;;;;;;;;;8220931;28;20022;-60
2024/01/26 08:13:25;;;;;;;3.50;2.70;;;;;;;;;;8217433;28;20273;-60
2024/01/26 08:17:25;;;;;;;5.00;3.00;;;;;;;;;;8217614;28;20042;-60
2024/01/26 08:21:26;;;;;;;3.40;3.10;;;;;;;;;;8228332;28;20026;-59
2024/01/26 08:25:26;;;;;;;3.63;3.28;;;;;;;;;;8216815;28;20026;-59
2024/01/26 08:29:26;;;;;;;5.88;3.30;;;;;;;;;;8215126;28;20551;-58
2024/01/26 08:33:27;;;;;;;4.93;3.13;;;;;;;;;;8213552;28;20608;-59
2024/01/26 08:37:27;;;;;;;3.55;3.15;;;;;;;;;;8214441;28;20027;-58
2024/01/26 08:41:27;;;;;;;2.97;2.72;;;;;;;;;;8211370;28;20614;-59
2024/01/26 08:45:27;;;;;;;2.95;2.75;;;;;;;;;;8210117;28;20042;-59
2024/01/26 08:49:27;;;;;;;2.70;2.50;;;;;;;;;;8213523;28;20693;-59
2024/01/26 08:53:28;;;;;;;2.15;2.00;;;;;;;;;;8209765;28;20021;-58
2024/01/26 08:57:28;;;;;;;3.13;2.15;;;;;;;;;;8215258;28;20524;-59
2024/01/26 09:01:28;;;;;;;3.10;2.28;;;;;;;;;;8217476;28;20034;-60
2024/01/26 09:05:28;;;;;;;2.50;2.00;;;;;;;;;;8210265;28;20628;-60
2024/01/26 09:09:29;;;;;;;2.60;2.40;;;;;;;;;;8217010;28;20475;-59
2024/01/26 09:13:30;;;;;;;3.67;2.35;;;;;;;;;;8216733;28;20026;-60
2024/01/26 09:17:30;;;;;;;2.73;1.90;;;;;;;;;;8212098;28;20782;-60
2024/01/26 09:21:30;;;;;;;2.90;2.47;;;;;;;;;;8216335;28;20030;-60
2024/01/26 09:25:30;;;;;;;4.38;2.08;;;;;;;;;;8213567;28;20017;-61
2024/01/26 09:29:31;;;;;;;2.55;2.35;;;;;;;;;;8216647;28;20018;-59
2024/01/26 09:33:31;;;;;;;2.93;2.60;;;;;;;;;;8224817;28;20470;-59
2024/01/26 09:37:31;;;;;;;2.97;2.50;;;;;;;;;;8233387;28;20982;-60
2024/01/26 09:41:32;;;;;;;2.80;2.60;;;;;;;;;;8234564;28;20774;-60
2024/01/26 09:45:32;;;;;;;3.80;2.70;;;;;;;;;;8221277;28;20440;-57
2024/01/26 09:49:33;;;;;;;5.00;2.27;;;;;;;;;;8224125;28;20030;-59
2024/01/26 09:53:34;;;;;;;2.57;2.20;;;;;;;;;;8221248;28;20463;-58
2024/01/26 09:57:34;;;;;;;2.60;2.40;;;;;;;;;;8215591;28;20041;-57
2024/01/26 10:01:35;;;;;;;2.63;2.40;;;;;;;;;;8222159;28;20034;-58
2024/01/26 10:05:36;;;;;;;2.20;2.00;;;;;;;;;;8223407;28;20746;-58
2024/01/26 10:09:37;;;;;;;2.03;1.90;;;;;;;;;;8224922;28;20092;-59
2024/01/26 10:13:37;;;;;;;3.38;1.85;;;;;;;;;;8240772;28;20106;-58
2024/01/26 10:17:38;;;;;;;2.50;1.58;;;;;;;;;;8240942;28;20041;-59
2024/01/26 10:21:38;;;;;;;2.08;1.80;;;;;;;;;;8241569;28;20053;-58
2024/01/26 10:25:39;;;;;;;3.20;1.77;;;;;;;;;;8247364;28;20385;-57
2024/01/26 10:29:39;;;;;;;2.20;1.90;;;;;;;;;;8247283;28;20042;-59
2024/01/26 10:33:44;;;;;;;1.60;1.50;;;;;;;;;;8231414;28;20499;-60
2024/01/26 10:37:44;;;;;;;1.60;1.50;;;;;;;;;;8230103;28;21008;-60
2024/01/26 10:41:47;;;;;;;1.90;1.42;;;;;;;;;;8235695;28;20515;-59
2024/01/26 10:45:48;;;;;;;1.65;1.40;;;;;;;;;;8232863;28;20108;-60
2024/01/26 10:49:49;;;;;;;3.38;1.60;;;;;;;;;;8242346;28;20026;-59
2024/01/26 10:53:50;;;;;;;1.38;1.27;;;;;;;;;;8246072;28;22588;-59
2024/01/26 10:57:50;;;;;;;2.85;1.67;;;;;;;;;;8242298;28;20040;-59
2024/01/26 11:01:50;;;;;;;4.15;1.20;;;;;;;;;;8239142;28;20658;-59
2024/01/26 11:05:51;;;;;;;1.80;1.20;;;;;;;;;;8240143;28;20034;-60
2024/01/26 11:09:52;;;;;;;1.17;1.10;;;;;;;;;;8235451;28;20032;-59
2024/01/26 11:13:52;;;;;;;2.45;1.25;;;;;;;;;;8242359;28;20197;-59
2024/01/26 11:17:53;;;;;;;1.88;1.10;;;;;;;;;;8242483;28;20077;-59
2024/01/26 11:21:57;;;;;;;1.55;1.00;;;;;;;;;;8226765;28;20029;-58
2024/01/26 11:25:58;;;;;;;2.53;1.00;;;;;;;;;;8229254;28;20037;-58
2024/01/26 11:29:58;;;;;;;1.17;1.00;;;;;;;;;;8225065;28;20030;-58
2024/01/26 11:33:58;;;;;;;2.38;1.20;;;;;;;;;;8228521;28;20376;-58
2024/01/26 11:38:00;;;;;;;1.05;0.98;;;;;;;;;;8225487;28;20745;-58
2024/01/26 11:42:00;;;;;;;1.73;1.00;;;;;;;;;;8225546;28;20092;-58
2024/01/26 11:46:00;;;;;;;1.37;1.07;;;;;;;;;;8228124;28;20100;-60
2024/01/26 11:50:00;;;;;;;1.67;0.80;;;;;;;;;;8225445;28;20682;-59
2024/01/26 11:54:01;;;;;;;0.98;0.90;;;;;;;;;;8223861;28;20025;-59
2024/01/26 11:58:01;;;;;;;0.75;0.75;;;;;;;;;;8225469;28;20038;-59
2024/01/26 12:02:02;;;;;;;0.80;0.80;;;;;;;;;;8231229;28;20042;-59
2024/01/26 12:06:02;;;;;;;0.77;0.77;;;;;;;;;;8239846;28;20029;-59
2024/01/26 12:10:05;;;;;;;1.15;1.05;;;;;;;;;;8240671;28;20501;-59
2024/01/26 12:14:05;;;;;;;1.10;0.98;;;;;;;;;;8240383;28;20026;-58
2024/01/26 12:18:10;;;;;;;0.70;0.70;;;;;;;;;;8239742;28;20069;-59
2024/01/26 12:22:10;;;;;;;0.80;0.80;;;;;;;;;;8233095;28;20781;-59
2024/01/26 12:26:11;;;;;;;1.20;0.95;;;;;;;;;;8236092;28;20505;-59
2024/01/26 12:30:11;;;;;;;1.00;0.77;;;;;;;;;;8229341;28;20460;-59
2024/01/26 12:34:15;;;;;;;0.70;0.65;;;;;;;;;;8218813;28;20497;-59
2024/01/26 12:38:15;;;;;;;3.20;0.80;;;;;;;;;;8219875;28;20510;-60
2024/01/26 12:42:15;;;;;;;1.63;0.90;;;;;;;;;;8219729;28;20419;-60
2024/01/26 12:46:15;;;;;;;0.80;0.70;;;;;;;;;;8220574;28;20476;-59
2024/01/26 12:50:16;;;;;;;1.98;0.73;;;;;;;;;;8216910;28;20029;-58
2024/01/26 12:54:16;;;;;;;2.30;0.70;;;;;;;;;;8215957;28;20175;-60
2024/01/26 12:58:17;;;;;;;1.10;0.70;;;;;;;;;;8210543;28;20034;-59
2024/01/26 13:02:17;;;;;;;0.98;0.70;;;;;;;;;;8219345;28;20050;-59
2024/01/26 13:06:17;;;;;;;1.70;0.80;;;;;;;;;;8215790;28;20030;-59
2024/01/26 13:10:19;;;;;;;2.42;0.95;;;;;;;;;;8215278;28;20022;-59
2024/01/26 13:14:19;;;;;;;0.60;0.60;;;;;;;;;;8225763;28;20168;-59
2024/01/26 13:18:19;;;;;;;2.00;0.88;;;;;;;;;;8232573;28;20065;-58
2024/01/26 13:22:19;;;;;;;0.80;0.70;;;;;;;;;;8237269;28;20037;-58
2024/01/26 13:26:20;;;;;;;1.10;0.80;;;;;;;;;;8246267;28;20026;-59
2024/01/26 13:30:20;;;;;;;0.60;0.60;;;;;;;;;;8240233;28;20022;-58
2024/01/26 13:34:20;;;;;;;1.07;0.83;;;;;;;;;;8235929;28;20033;-58
2024/01/26 13:38:20;;;;;;;1.35;0.80;;;;;;;;;;8241181;28;20396;-58
2024/01/26 13:42:21;;;;;;;0.75;0.60;;;;;;;;;;8219318;28;20033;-57
2024/01/26 13:46:21;;;;;;;0.50;0.50;;;;;;;;;;8211616;28;20056;-58
2024/01/26 13:50:21;;;;;;;1.42;0.50;;;;;;;;;;8212425;28;20463;-58
2024/01/26 13:54:22;;;;;;;1.27;0.70;;;;;;;;;;8213418;28;20131;-58
2024/01/26 13:58:22;;;;;;;0.50;0.50;;;;;;;;;;8214649;28;20027;-59
2024/01/26 14:02:22;;;;;;;0.80;0.80;;;;;;;;;;8231082;28;20034;-59
2024/01/26 14:06:23;;;;;;;0.60;0.60;;;;;;;;;;8238797;28;20029;-58
2024/01/26 14:10:23;;;;;;;0.80;0.50;;;;;;;;;;8242106;28;20304;-59
2024/01/26 14:14:23;;;;;;;1.33;0.60;;;;;;;;;;8241261;28;20517;-59
2024/01/26 14:18:23;;;;;;;2.50;0.80;;;;;;;;;;8242465;28;20829;-59
2024/01/26 14:22:23;;;;;;;4.85;1.08;;;;;;;;;;8225566;28;20307;-59
2024/01/26 14:26:27;;;;;;;0.60;0.60;;;;;;;;;;8214460;28;20026;-58
2024/01/26 14:30:27;;;;;;;3.05;1.00;;;;;;;;;;8210517;28;20049;-58
2024/01/26 14:34:28;;;;;;;5.10;1.30;;;;;;;;;;8213797;28;20044;-58
2024/01/26 14:38:28;;;;;;;4.10;1.00;;;;;;;;;;8217900;28;20117;-57
2024/01/26 14:42:29;;;;;;;1.57;0.90;;;;;;;;;;8231300;28;20017;-58
2024/01/26 14:46:31;;;;;;;2.95;1.20;;;;;;;;;;8217897;28;20387;-58
2024/01/26 14:50:32;;;;;;;1.63;0.85;;;;;;;;;;8224785;28;20040;-58
2024/01/26 14:54:32;;;;;;;2.35;1.05;;;;;;;;;;8243262;28;20022;-58
2024/01/26 14:58:32;;;;;;;2.50;0.88;;;;;;;;;;8241351;28;20026;-59
2024/01/26 15:02:35;;;;;;;2.43;0.83;;;;;;;;;;8236753;28;20514;-58
2024/01/26 15:06:35;;;;;;;2.20;1.00;;;;;;;;;;8241216;28;20280;-59
2024/01/26 15:10:36;;;;;;;3.42;1.00;;;;;;;;;;8237282;28;21040;-59
2024/01/26 15:14:36;;;;;;;1.48;1.10;;;;;;;;;;8229601;28;20034;-59
2024/01/26 15:18:36;;;;;;;3.95;1.00;;;;;;;;;;8223970;28;20030;-59
2024/01/26 15:22:36;;;;;;;3.50;1.25;;;;;;;;;;8232211;28;20026;-59
2024/01/26 15:26:41;;;;;;;4.00;1.23;;;;;;;;;;8228046;28;20395;-59
2024/01/26 15:30:42;;;;;;;2.22;1.00;;;;;;;;;;8224132;28;20042;-59
2024/01/26 15:34:42;;;;;;;2.63;0.82;;;;;;;;;;8225874;28;20041;-59
2024/01/26 15:38:42;;;;;;;3.10;0.95;;;;;;;;;;8223958;28;20035;-58
2024/01/26 15:42:43;;;;;;;2.75;1.30;;;;;;;;;;8225822;28;20026;-59
2024/01/26 15:46:43;;;;;;;3.92;1.00;;;;;;;;;;8224314;28;20042;-59
2024/01/26 15:50:43;;;;;;;2.95;1.42;;;;;;;;;;8226710;28;20055;-59
2024/01/26 15:54:43;;;;;;;1.55;0.90;;;;;;;;;;8225549;28;20018;-58
2024/01/26 15:58:45;;;;;;;1.20;0.80;;;;;;;;;;8224757;28;20036;-58
2024/01/26 16:02:45;;;;;;;1.42;0.70;;;;;;;;;;8227860;28;20053;-58
2024/01/26 16:06:45;;;;;;;2.00;0.80;;;;;;;;;;8225545;28;20498;-60
2024/01/26 16:10:45;;;;;;;2.88;0.90;;;;;;;;;;8221157;28;20292;-59
2024/01/26 16:14:46;;;;;;;3.00;0.80;;;;;;;;;;8228588;28;20034;-58
2024/01/26 16:18:48;;;;;;;3.93;0.90;;;;;;;;;;8227235;28;20971;-58
2024/01/26 16:22:48;;;;;;;1.38;0.70;;;;;;;;;;8228609;28;20121;-59
2024/01/26 16:26:49;;;;;;;4.30;1.15;;;;;;;;;;8227263;28;20577;-59
2024/01/26 16:30:49;;;;;;;2.95;0.85;;;;;;;;;;8227250;28;20652;-59
2024/01/26 16:34:49;;;;;;;1.98;0.80;;;;;;;;;;8230369;28;20527;-59
2024/01/26 16:38:50;;;;;;;3.97;1.20;;;;;;;;;;8228728;28;20030;-60
2024/01/26 16:42:50;;;;;;;4.45;0.70;;;;;;;;;;8224968;28;21219;-59
2024/01/26 16:46:50;;;;;;;3.40;1.27;;;;;;;;;;8222326;28;20053;-58
2024/01/26 16:50:50;;;;;;;2.45;0.90;;;;;;;;;;8223357;28;22710;-58
2024/01/26 16:54:52;;;;;;;3.90;0.82;;;;;;;;;;8226103;28;20033;-57
2024/01/26 16:58:52;;;;;;;1.85;0.90;;;;;;;;;;8218256;28;20034;-58
2024/01/26 17:02:56;;;;;;;4.13;1.30;;;;;;;;;;8224559;28;20407;-57
2024/01/26 17:06:57;;;;;;;2.40;0.93;;;;;;;;;;8224183;28;20140;-57
2024/01/26 17:10:57;;;;;;;2.65;1.00;;;;;;;;;;8223308;28;20244;-58
2024/01/26 17:14:57;;;;;;;2.95;1.08;;;;;;;;;;8230534;28;20029;-58
2024/01/26 17:18:57;;;;;;;3.28;0.90;;;;;;;;;;8222540;28;20049;-57
2024/01/26 17:22:57;;;;;;;1.17;1.00;;;;;;;;;;8226031;28;20810;-58
2024/01/26 17:26:57;;;;;;;3.70;1.00;;;;;;;;;;8224303;28;20033;-58
2024/01/26 17:30:58;;;;;;;4.18;1.55;;;;;;;;;;8224246;28;20124;-58
2024/01/26 17:34:58;;;;;;;5.15;2.50;;;;;;;;;;8251087;28;20034;-58
2024/01/26 17:38:58;;;;;;;3.60;1.70;;;;;;;;;;8250705;28;20041;-58
2024/01/26 17:42:58;;;;;;;2.97;1.23;;;;;;;;;;8247336;28;20789;-59
2024/01/26 17:46:59;;;;;;;2.40;0.90;;;;;;;;;;8251969;28;20041;-59
2024/01/26 17:51:00;;;;;;;1.63;0.90;;;;;;;;;;8248651;28;20037;-58
2024/01/26 17:55:00;;;;;;;2.97;0.80;;;;;;;;;;8224920;28;20025;-59
2024/01/26 17:59:00;;;;;;;4.28;1.00;;;;;;;;;;8221407;28;20608;-59
2024/01/26 18:03:00;;;;;;;3.85;0.80;;;;;;;;;;8230697;28;20391;-59
2024/01/26 18:07:01;;;;;;;4.47;1.70;;;;;;;;;;8225868;28;20025;-58
2024/01/26 18:11:03;;;;;;;6.50;1.13;;;;;;;;;;8224386;28;20037;-59
2024/01/26 18:15:04;;;;;;;5.60;1.30;;;;;;;;;;8223553;28;20029;-59
2024/01/26 18:19:04;;;;;;;2.97;0.98;;;;;;;;;;8224426;28;20029;-59
2024/01/26 18:23:12;;;;;;;1.67;0.80;;;;;;;;;;8238983;28;20963;-59
2024/01/26 18:27:12;;;;;;;6.53;0.90;;;;;;;;;;8252113;28;20481;-59
2024/01/26 18:31:12;;;;;;;3.75;0.90;;;;;;;;;;8249637;28;20038;-58
2024/01/26 18:35:13;;;;;;;6.63;1.48;;;;;;;;;;8246571;28;20025;-58
2024/01/26 18:39:14;;;;;;;6.20;1.10;;;;;;;;;;8249891;28;20037;-58
2024/01/26 18:43:14;;;;;;;5.70;1.38;;;;;;;;;;8239064;28;20026;-58
2024/01/26 18:47:15;;;;;;;7.75;2.25;;;;;;;;;;8228139;28;20134;-58
2024/01/26 18:51:16;;;;;;;6.95;2.63;;;;;;;;;;8229414;28;20030;-58
2024/01/26 18:55:17;;;;;;;3.47;1.08;;;;;;;;;;8225990;28;20056;-58
2024/01/26 18:59:18;;;;;;;3.80;1.02;;;;;;;;;;8226189;28;20022;-58
2024/01/26 19:03:18;;;;;;;6.78;1.25;;;;;;;;;;8228194;28;20041;-58
2024/01/26 19:07:18;;;;;;;4.15;1.48;;;;;;;;;;8230006;28;20021;-58
2024/01/26 19:11:21;;;;;;;6.78;1.77;;;;;;;;;;8227226;28;20038;-57
2024/01/26 19:15:21;;;;;;;4.45;1.58;;;;;;;;;;8227643;28;20033;-58
2024/01/26 19:19:22;;;;;;;4.03;1.52;;;;;;;;;;8216125;28;20029;-59
2024/01/26 19:23:22;;;;;;;4.78;1.38;;;;;;;;;;8221276;28;20026;-60
2024/01/26 19:27:22;;;;;;;3.15;1.30;;;;;;;;;;8220879;28;20029;-59
2024/01/26 19:31:22;;;;;;;2.85;1.20;;;;;;;;;;8218357;28;21080;-59
2024/01/26 19:35:24;;;;;;;7.22;1.42;;;;;;;;;;8239417;28;20053;-59
2024/01/26 19:39:25;;;;;;;2.88;1.35;;;;;;;;;;8239716;28;20049;-58
2024/01/26 19:43:25;;;;;;;5.85;1.40;;;;;;;;;;8238574;28;20018;-59
2024/01/26 19:47:25;;;;;;;5.95;1.33;;;;;;;;;;8243397;28;20034;-60
2024/01/26 19:51:26;;;;;;;4.45;1.70;;;;;;;;;;8240753;28;20464;-59
2024/01/26 19:55:26;;;;;;;4.20;1.92;;;;;;;;;;8241528;28;20057;-59
2024/01/26 19:59:27;;;;;;;6.10;1.63;;;;;;;;;;8241783;28;20111;-59
2024/01/26 20:03:28;;;;;;;6.05;1.60;;;;;;;;;;8241211;28;20048;-58
2024/01/26 20:07:28;;;;;;;5.88;1.25;;;;;;;;;;8236634;28;20030;-58
2024/01/26 20:11:28;;;;;;;4.70;1.33;;;;;;;;;;8241758;28;20034;-59
2024/01/26 20:15:28;;;;;;;5.78;1.50;;;;;;;;;;8219438;28;20269;-58
2024/01/26 20:19:28;;;;;;;3.85;1.38;;;;;;;;;;8213117;28;21507;-58
2024/01/26 20:23:30;;;;;;;4.68;1.55;;;;;;;;;;8210798;28;20031;-58
2024/01/26 20:27:30;;;;;;;4.55;1.30;;;;;;;;;;8219886;28;20033;-58
2024/01/26 20:31:30;;;;;;;6.38;1.38;;;;;;;;;;8212508;28;20049;-58
2024/01/26 20:35:30;;;;;;;3.92;1.33;;;;;;;;;;8206436;28;20036;-58
2024/01/26 20:39:30;;;;;;;2.37;1.20;;;;;;;;;;8207741;28;20100;-58
2024/01/26 20:43:31;;;;;;;4.32;1.05;;;;;;;;;;8205480;28;20273;-58
2024/01/26 20:47:31;;;;;;;6.88;2.28;;;;;;;;;;8207956;28;20034;-63
2024/01/26 20:51:31;;;;;;;8.23;2.72;;;;;;;;;;8212222;28;20149;-58
2024/01/26 20:55:32;;;;;;;5.63;1.63;;;;;;;;;;8211399;28;20395;-58
2024/01/26 20:59:32;;;;;;;2.23;1.10;;;;;;;;;;8211922;28;21085;-57
2024/01/26 21:03:32;;;;;;;3.95;1.20;;;;;;;;;;8209395;28;20265;-58
2024/01/26 21:07:32;;;;;;;6.60;1.90;;;;;;;;;;8206328;28;20029;-58
2024/01/26 21:11:33;;;;;;;4.82;1.50;;;;;;;;;;8210236;28;20374;-58
2024/01/26 21:15:33;;;;;;;4.28;1.30;;;;;;;;;;8207878;28;20467;-59
2024/01/26 21:19:34;;;;;;;6.70;1.52;;;;;;;;;;8209454;28;20025;-57
2024/01/26 21:23:34;;;;;;;6.05;1.40;;;;;;;;;;8211527;28;20026;-59
2024/01/26 21:27:34;;;;;;;5.78;2.08;;;;;;;;;;8208562;28;20443;-58
2024/01/26 21:31:35;;;;;;;5.68;1.45;;;;;;;;;;8206518;28;20455;-57
2024/01/26 21:35:36;;;;;;;5.85;1.60;;;;;;;;;;8208912;28;20572;-58
2024/01/26 21:39:36;;;;;;;5.90;1.42;;;;;;;;;;8206143;28;20183;-58
2024/01/26 21:43:36;;;;;;;7.13;1.77;;;;;;;;;;8206264;28;20026;-59
2024/01/26 21:47:36;;;;;;;8.43;1.65;;;;;;;;;;8203954;28;20046;-58
2024/01/26 21:51:37;;;;;;;6.25;1.40;;;;;;;;;;8205361;28;20368;-58
2024/01/26 21:55:38;;;;;;;6.78;1.35;;;;;;;;;;8209596;28;20474;-57
2024/01/26 21:59:38;;;;;;;8.57;1.75;;;;;;;;;;8206890;28;20029;-58
2024/01/26 22:03:39;;;;;;;3.50;1.30;;;;;;;;;;8207661;28;20228;-58
2024/01/26 22:07:39;;;;;;;3.88;1.30;;;;;;;;;;8205644;28;20029;-58
2024/01/26 22:11:39;;;;;;;9.07;1.45;;;;;;;;;;8209015;28;20040;-57
2024/01/26 22:15:39;;;;;;;3.38;1.10;;;;;;;;;;8213141;28;20129;-58
2024/01/26 22:19:39;;;;;;;2.70;1.35;;;;;;;;;;8214054;28;20379;-60
2024/01/26 22:23:40;;;;;;;6.03;1.63;;;;;;;;;;8216070;28;20785;-59
2024/01/26 22:27:40;;;;;;;4.87;1.50;;;;;;;;;;8219676;28;20034;-58
2024/01/26 22:31:41;;;;;;;5.82;1.70;;;;;;;;;;8216800;28;20396;-59
2024/01/26 22:35:44;;;;;;;5.85;1.65;;;;;;;;;;8218066;28;20509;-58
2024/01/26 22:39:46;;;;;;;5.03;1.23;;;;;;;;;;8222245;28;20022;-58
2024/01/26 22:43:46;;;;;;;6.90;1.70;;;;;;;;;;8220707;28;20573;-57
2024/01/26 22:47:46;;;;;;;8.68;1.63;;;;;;;;;;8212441;28;20042;-58
2024/01/26 22:51:47;;;;;;;4.67;1.40;;;;;;;;;;8214468;28;20084;-58
2024/01/26 22:55:47;;;;;;;4.80;1.30;;;;;;;;;;8219731;28;20272;-60
2024/01/26 22:59:47;;;;;;;4.85;1.48;;;;;;;;;;8216319;28;20123;-58
2024/01/26 23:03:47;;;;;;;1.87;1.00;;;;;;;;;;8214293;28;20073;-58
2024/01/26 23:07:48;;;;;;;5.13;1.42;;;;;;;;;;8217773;28;20322;-58
2024/01/26 23:11:48;;;;;;;3.70;1.40;;;;;;;;;;8222074;28;20076;-58
2024/01/26 23:15:49;;;;;;;5.53;1.50;;;;;;;;;;8220670;28;20033;-59
2024/01/26 23:19:49;;;;;;;15.18;4.15;;;;;;;;;;8219850;28;20030;-58
2024/01/26 23:23:50;;;;;;;27.23;8.25;;;;;;;;;;8223676;28;20045;-59
2024/01/26 23:27:51;;;;;;;13.90;4.78;;;;;;;;;;8237911;28;20026;-57
2024/01/26 23:31:51;;;;;;;4.90;1.70;;;;;;;;;;8235021;28;20558;-58
2024/01/26 23:35:51;;;;;;;7.32;2.03;;;;;;;;;;8235563;28;23749;-59
2024/01/26 23:39:51;;;;;;;5.93;1.63;;;;;;;;;;8235169;28;20041;-58
2024/01/26 23:43:55;;;;;;;6.35;1.60;;;;;;;;;;8229523;28;22878;-59
2024/01/26 23:47:55;;;;;;;6.20;1.40;;;;;;;;;;8218009;28;20372;-58
2024/01/26 23:51:55;;;;;;;7.27;1.60;;;;;;;;;;8221199;28;20018;-59
2024/01/26 23:55:56;;;;;;;7.50;1.40;;;;;;;;;;8223086;28;21163;-59
2024/01/26 23:59:56;;;;;;;2.53;1.15;;;;;;;;;;8223617;28;20439;-58
